Time;durP1;ratioP1;P1;durP2;ratioP2;P2;SDS_P1;SDS_P2;PMS_P1;PMS_P2;Temp;Humidity;BMP_temperature;BMP_pressure;BME280_temperature;BME280_humidity;BME280_pressure;Samples;Min_cycle;Max_cycle;Signal;HPM_P1;HPM_P2
2022/10/03 00:00:57;;;;;;;23.08;9.35;;;8.90;99.90;;;-144.05;84.87;125687.94;5040157;28;20114;-82
2022/10/03 00:03:53;;;;;;;32.65;8.60;;;8.90;99.90;;;-144.05;84.58;125687.94;5040242;28;20033;-85
2022/10/03 00:07:20;;;;;;;29.30;8.13;;;9.00;99.90;;;-144.05;84.69;125687.94;5024528;28;20037;-83
2022/10/03 00:10:36;;;;;;;21.17;7.30;;;8.90;99.90;;;-144.05;84.52;125687.94;5027127;28;20448;-85
2022/10/03 00:13:42;;;;;;;22.80;8.10;;;8.90;99.90;;;-144.05;84.62;125687.94;5027768;28;20039;-84
2022/10/03 00:16:35;;;;;;;19.02;7.15;;;8.90;99.90;;;-144.05;84.64;125687.94;5045723;28;20025;-84
2022/10/03 00:20:13;;;;;;;23.05;7.57;;;8.80;99.90;;;-144.05;84.83;125687.94;5046580;28;20103;-82
2022/10/03 00:23:20;;;;;;;22.90;8.88;;;8.80;99.90;;;-144.05;85.19;125687.94;4995444;28;20509;-83
2022/10/03 00:26:27;;;;;;;30.48;7.47;;;8.80;99.90;;;-144.05;85.44;125687.94;5014459;28;20076;-83
2022/10/03 00:30:01;;;;;;;16.38;6.78;;;8.80;99.90;;;-144.05;85.07;125687.94;5031500;28;20026;-84
2022/10/03 00:32:42;;;;;;;18.80;6.60;;;8.80;99.90;;;-144.05;84.96;125687.94;5016236;28;20040;-84
2022/10/03 00:36:01;;;;;;;22.52;6.93;;;8.80;99.90;;;-144.05;85.08;125687.94;5031257;28;20512;-84
2022/10/03 00:39:03;;;;;;;27.70;7.95;;;8.80;99.90;;;-144.05;85.26;125687.94;5031181;28;20068;-85
2022/10/03 00:42:36;;;;;;;19.13;6.70;;;8.80;99.90;;;-144.05;85.28;125687.94;5030760;28;20030;-84
2022/10/03 00:46:18;;;;;;;28.50;7.45;;;8.80;99.90;;;-144.05;85.04;125687.94;5016098;28;20028;-82
2022/10/03 00:49:12;;;;;;;28.00;6.55;;;8.70;99.90;;;-144.05;85.34;125687.94;5017740;28;20124;-85
2022/10/03 00:52:04;;;;;;;28.38;7.97;;;8.70;99.90;;;-144.05;85.41;125687.94;5023366;28;20044;-84
2022/10/03 00:55:15;;;;;;;24.83;7.78;;;8.70;99.90;;;-144.05;85.54;125687.94;5022503;28;20252;-86
2022/10/03 00:58:10;;;;;;;21.10;6.72;;;8.70;99.90;;;-144.05;85.49;125687.94;5024417;28;20042;-84
2022/10/03 01:00:45;;;;;;;23.48;6.45;;;8.70;99.90;;;-144.05;85.41;125687.94;5024352;28;20117;-87
2022/10/03 01:03:52;;;;;;;28.70;7.53;;;8.70;99.90;;;-144.05;85.59;125687.94;5023891;28;20077;-85
2022/10/03 01:06:56;;;;;;;25.83;7.10;;;8.70;99.90;;;-144.05;85.66;125687.94;5028900;28;20025;-81
2022/10/03 01:09:37;;;;;;;25.25;7.10;;;8.70;99.90;;;-144.05;85.66;125687.94;5034870;28;20575;-83
2022/10/03 01:12:46;;;;;;;21.92;7.55;;;8.70;99.90;;;-144.05;85.44;125687.94;5031426;28;20057;-82
2022/10/03 01:15:46;;;;;;;30.25;8.05;;;8.70;99.90;;;-144.05;86.07;125687.94;4998550;28;20128;-85
2022/10/03 01:18:26;;;;;;;27.58;8.02;;;8.70;99.90;;;-144.05;85.66;125687.94;5013203;28;20045;-85
2022/10/03 01:22:08;;;;;;;29.27;8.38;;;8.70;99.90;;;-144.05;86.04;125687.94;5029796;28;20038;-84
2022/10/03 01:25:06;;;;;;;27.77;8.90;;;8.80;99.90;;;-144.05;85.74;125687.94;5010806;28;20045;-84
2022/10/03 01:31:18;;;;;;;34.85;10.07;;;9.00;99.90;;;-144.05;86.09;125687.94;5015334;28;20060;-84
2022/10/03 01:34:16;;;;;;;28.45;8.30;;;9.10;99.90;;;-144.05;85.65;125687.94;5030067;28;20026;-86
2022/10/03 01:37:14;;;;;;;30.10;9.57;;;9.10;99.90;;;-144.05;85.78;125687.94;5015101;28;20025;-84
2022/10/03 01:40:28;;;;;;;28.83;8.32;;;9.10;99.90;;;-144.05;85.61;125687.94;5013522;28;20045;-83
2022/10/03 01:43:12;;;;;;;28.08;7.82;;;9.10;99.90;;;-144.05;85.52;125687.94;5029778;28;20407;-83
2022/10/03 01:46:27;;;;;;;30.40;9.75;;;9.10;99.90;;;-144.05;86.01;125687.94;5014685;28;20075;-83
2022/10/03 01:49:44;;;;;;;30.77;8.15;;;9.10;99.90;;;-144.05;85.72;125687.94;5029506;28;20045;-85
2022/10/03 01:52:55;;;;;;;32.58;9.35;;;9.10;99.90;;;-144.05;85.49;125687.94;5029614;28;20022;-83
2022/10/03 01:56:07;;;;;;;28.20;8.93;;;9.00;99.90;;;-144.05;85.37;125687.94;5026614;28;20030;-82
2022/10/03 01:59:02;;;;;;;30.83;8.52;;;9.00;99.90;;;-144.05;85.77;125687.94;5014819;28;20085;-83
2022/10/03 02:02:10;;;;;;;27.17;8.30;;;9.10;99.90;;;-144.05;85.35;125687.94;5029800;28;20064;-85
2022/10/03 02:05:04;;;;;;;28.20;8.48;;;9.00;99.90;;;-144.05;85.52;125687.94;5014654;28;20022;-85
2022/10/03 02:07:59;;;;;;;29.38;9.00;;;9.00;99.90;;;-144.05;85.37;125687.94;5029863;28;20029;-83
2022/10/03 02:10:49;;;;;;;23.40;8.38;;;9.00;99.90;;;-144.05;85.50;125687.94;5013095;28;20478;-84
2022/10/03 02:13:44;;;;;;;36.80;9.68;;;9.00;99.90;;;-144.05;85.97;125687.94;5029921;28;20030;-86
2022/10/03 02:16:43;;;;;;;36.55;11.18;;;9.10;99.90;;;-144.05;85.64;125687.94;5029338;28;20026;-84
2022/10/03 02:19:34;;;;;;;33.72;9.15;;;9.10;99.90;;;-144.05;86.05;125687.94;5012970;28;20450;-83
2022/10/03 02:22:01;;;;;;;25.27;8.30;;;9.10;99.90;;;-144.05;85.61;125687.94;5029459;28;20033;-83
2022/10/03 02:24:54;;;;;;;29.88;9.55;;;9.10;99.90;;;-144.05;85.59;125687.94;5029804;28;20034;-85
2022/10/03 02:28:09;;;;;;;24.63;8.80;;;9.10;99.90;;;-144.05;85.52;125687.94;5033238;28;20022;-85
2022/10/03 02:31:17;;;;;;;27.80;9.38;;;9.10;99.90;;;-144.05;85.12;125687.94;5018596;28;20116;-84
2022/10/03 02:34:14;;;;;;;31.52;10.38;;;9.00;99.90;;;-144.05;85.31;125687.94;5018706;28;20049;-86
2022/10/03 02:37:26;;;;;;;29.98;8.63;;;9.00;99.90;;;-144.05;85.27;125687.94;5036122;28;20030;-85
2022/10/03 02:40:37;;;;;;;25.40;9.02;;;8.90;99.90;;;-144.05;84.97;125687.94;5036284;28;20044;-87
2022/10/03 02:44:22;;;;;;;34.50;10.55;;;8.80;99.90;;;-144.05;85.71;125687.94;5038463;28;20062;-86
2022/10/03 02:47:27;;;;;;;35.05;9.55;;;8.80;99.90;;;-144.05;85.62;125687.94;4999481;28;20038;-84
2022/10/03 02:50:38;;;;;;;34.30;9.52;;;8.70;99.90;;;-144.05;85.49;125687.94;5039785;28;20042;-87
2022/10/03 02:53:34;;;;;;;25.42;8.43;;;8.70;99.90;;;-144.05;85.07;125687.94;5036772;28;20064;-83
2022/10/03 02:56:47;;;;;;;30.73;9.15;;;8.70;99.90;;;-144.05;85.35;125687.94;5030803;28;20088;-84
2022/10/03 03:00:08;;;;;;;30.00;9.07;;;8.60;99.90;;;-144.05;85.76;125687.94;5030782;28;20034;-86
2022/10/03 03:03:53;;;;;;;32.28;9.23;;;8.60;99.90;;;-144.05;85.64;125687.94;5029943;28;20126;-85
2022/10/03 03:07:07;;;;;;;28.48;8.80;;;8.60;99.90;;;-144.05;85.46;125687.94;5031198;28;20030;-88
2022/10/03 03:10:09;;;;;;;29.25;9.48;;;8.60;99.90;;;-144.05;85.36;125687.94;5032624;28;20029;-87
2022/10/03 03:13:06;;;;;;;28.85;9.88;;;8.50;99.90;;;-144.05;85.97;125687.94;5033719;28;20090;-87
2022/10/03 03:16:07;;;;;;;28.58;10.80;;;8.60;99.90;;;-144.05;86.26;125687.94;5018263;28;20026;-86
2022/10/03 03:19:25;;;;;;;37.80;10.88;;;8.50;99.90;;;-144.05;85.92;125687.94;5034460;28;20421;-87
2022/10/03 03:22:56;;;;;;;32.20;10.07;;;8.50;99.90;;;-144.05;85.80;125687.94;5041488;28;20072;-82
2022/10/03 03:25:46;;;;;;;29.60;11.57;;;8.50;99.90;;;-144.05;86.07;125687.94;5033570;28;20148;-88
2022/10/03 03:28:42;;;;;;;29.45;9.30;;;8.40;99.90;;;-144.05;86.02;125687.94;5014027;28;20374;-83
2022/10/03 03:31:18;;;;;;;28.98;9.55;;;8.40;99.90;;;-144.05;86.32;125687.94;5013779;28;20084;-85
2022/10/03 03:34:01;;;;;;;32.70;10.25;;;8.40;99.90;;;-144.05;86.43;125687.94;5028660;28;20423;-84
2022/10/03 03:37:13;;;;;;;25.52;10.07;;;8.40;99.90;;;-144.05;85.92;125687.94;5028611;28;20034;-88
2022/10/03 03:40:12;;;;;;;27.33;9.60;;;8.40;99.90;;;-144.05;86.00;125687.94;5012891;28;20446;-86
2022/10/03 03:43:08;;;;;;;35.63;9.57;;;8.30;99.90;;;-144.05;86.21;125687.94;5028984;28;20037;-86
2022/10/03 03:46:13;;;;;;;26.80;8.93;;;8.30;99.90;;;-144.05;85.82;125687.94;5028554;28;20544;-87
2022/10/03 03:49:03;;;;;;;22.55;8.60;;;8.30;99.90;;;-144.05;85.97;125687.94;5028618;28;20049;-85
2022/10/03 03:51:50;;;;;;;27.35;9.95;;;8.20;99.90;;;-144.05;86.00;125687.94;5032387;28;20429;-85
2022/10/03 03:54:55;;;;;;;29.00;10.63;;;8.20;99.90;;;-144.05;86.05;125687.94;5031774;28;20029;-88
2022/10/03 03:57:36;;;;;;;27.33;9.90;;;8.20;99.90;;;-144.05;85.87;125687.94;5015542;28;20242;-86
2022/10/03 04:00:46;;;;;;;29.15;9.95;;;8.10;99.90;;;-144.05;86.21;125687.94;5017052;28;20034;-87
2022/10/03 04:03:48;;;;;;;32.80;10.82;;;8.10;99.90;;;-144.05;86.55;125687.94;5014777;28;20413;-85
2022/10/03 04:06:45;;;;;;;28.88;9.43;;;8.10;99.90;;;-144.05;86.39;125687.94;5015965;28;20374;-87
2022/10/03 04:10:04;;;;;;;35.17;11.55;;;8.10;99.90;;;-144.05;86.37;125687.94;5031059;28;20441;-88
2022/10/03 04:13:05;;;;;;;31.58;11.00;;;8.10;99.90;;;-144.05;86.55;125687.94;5015803;28;20026;-87
2022/10/03 04:16:12;;;;;;;30.80;11.68;;;8.20;99.90;;;-144.05;86.61;125687.94;5011081;28;20048;-86
2022/10/03 04:19:17;;;;;;;27.45;12.70;;;8.30;99.90;;;-144.05;86.78;125687.94;5015925;28;20026;-85
2022/10/03 04:22:13;;;;;;;33.00;12.18;;;8.40;99.90;;;-144.05;87.10;125687.94;5030604;28;20038;-86
2022/10/03 04:25:14;;;;;;;32.95;12.07;;;8.50;99.90;;;-144.05;86.75;125687.94;5030839;28;20025;-85
2022/10/03 04:28:12;;;;;;;25.65;11.38;;;8.60;99.90;;;-144.05;86.88;125687.94;5015985;28;20104;-84
2022/10/03 04:31:05;;;;;;;43.83;12.82;;;8.70;99.90;;;-144.05;87.10;125687.94;5015208;28;20057;-87
2022/10/03 04:34:22;;;;;;;27.33;10.57;;;8.80;99.90;;;-144.05;87.02;125687.94;5014063;28;20030;-86
2022/10/03 04:37:36;;;;;;;30.40;12.03;;;8.90;99.90;;;-144.05;86.83;125687.94;5015242;28;20025;-87
2022/10/03 04:40:53;;;;;;;33.53;10.95;;;9.00;99.90;;;-144.05;86.52;125687.94;5015230;28;20371;-87
2022/10/03 04:43:59;;;;;;;33.15;13.27;;;9.10;99.90;;;-144.05;87.13;125687.94;5014596;28;20036;-87
2022/10/03 04:47:01;;;;;;;29.10;12.00;;;9.10;99.90;;;-144.05;87.00;125687.94;5014523;28;20026;-85
2022/10/03 04:50:00;;;;;;;33.58;11.52;;;9.20;99.90;;;-144.05;86.87;125687.94;5014233;28;20465;-85
2022/10/03 04:53:06;;;;;;;36.50;12.45;;;9.20;99.90;;;-144.05;86.69;125687.94;5014521;28;20080;-84
2022/10/03 04:56:21;;;;;;;27.70;11.55;;;9.30;99.90;;;-144.05;87.10;125687.94;5016557;28;20037;-86
2022/10/03 04:59:25;;;;;;;30.60;11.95;;;9.30;99.90;;;-144.05;86.75;125687.94;5031611;28;20137;-86
2022/10/03 05:02:27;;;;;;;22.40;10.07;;;9.30;99.90;;;-144.05;86.99;125687.94;5031867;28;20104;-84
2022/10/03 05:05:46;;;;;;;30.15;11.73;;;9.40;99.90;;;-144.05;87.02;125687.94;5032065;28;20026;-87
2022/10/03 05:09:00;;;;;;;33.53;11.43;;;9.40;99.90;;;-144.05;86.63;125687.94;4996130;28;20045;-86
2022/10/03 05:12:31;;;;;;;33.58;13.35;;;9.40;99.90;;;-144.05;86.95;125687.94;5018066;28;20030;-86
2022/10/03 05:15:49;;;;;;;25.38;10.88;;;9.40;99.90;;;-144.05;86.46;125687.94;5032841;28;20033;-87
2022/10/03 05:18:33;;;;;;;27.45;11.70;;;9.50;99.90;;;-144.05;86.49;125687.94;5017609;28;20097;-86
2022/10/03 05:21:22;;;;;;;31.48;11.80;;;9.50;99.90;;;-144.05;86.48;125687.94;5033787;28;20044;-85
2022/10/03 05:24:26;;;;;;;37.60;12.32;;;9.50;99.90;;;-144.05;86.34;125687.94;5019554;28;20383;-87
2022/10/03 05:27:34;;;;;;;35.65;10.82;;;9.50;99.90;;;-144.05;86.51;125687.94;5019386;28;20033;-85
2022/10/03 05:31:11;;;;;;;28.85;11.27;;;9.50;99.90;;;-144.05;86.50;125687.94;5033430;28;20394;-85
2022/10/03 05:34:05;;;;;;;30.67;11.63;;;9.50;99.90;;;-144.05;86.54;125687.94;4996371;28;20026;-87
2022/10/03 05:37:38;;;;;;;32.22;11.95;;;9.40;99.90;;;-144.05;86.44;125687.94;5024163;28;20057;-85
2022/10/03 05:40:23;;;;;;;33.72;10.80;;;9.40;99.90;;;-144.05;86.49;125687.94;5036837;28;20431;-86
2022/10/03 05:42:49;;;;;;;33.47;11.70;;;9.30;99.90;;;-144.05;86.14;125687.94;5016044;28;20037;-85
2022/10/03 05:45:31;;;;;;;28.50;10.63;;;9.30;99.90;;;-144.05;86.32;125687.94;5031145;28;20037;-85
2022/10/03 05:48:39;;;;;;;32.55;10.10;;;9.30;99.90;;;-144.05;86.06;125687.94;5017158;28;20030;-86
2022/10/03 05:51:47;;;;;;;30.00;11.18;;;9.20;99.90;;;-144.05;86.05;125687.94;5031846;28;20030;-87
2022/10/03 05:55:01;;;;;;;;;;;9.10;99.90;;;-144.05;86.15;125687.94;5016447;28;20037;-86
2022/10/03 05:58:06;;;;;;;23.77;10.15;;;9.10;99.90;;;-144.05;86.17;125687.94;5017277;28;19909;-85
2022/10/03 06:01:08;;;;;;;31.27;9.70;;;9.10;99.90;;;-144.05;85.90;125687.94;5010332;28;20042;-88
2022/10/03 06:04:00;;;;;;;26.38;11.02;;;9.10;99.90;;;-144.05;86.05;125687.94;5032886;28;20088;-86
2022/10/03 06:07:11;;;;;;;24.45;10.80;;;9.00;99.90;;;-144.05;86.37;125687.94;5031996;28;20037;-87
2022/10/03 06:11:10;;;;;;;25.75;8.98;;;9.10;99.90;;;-144.05;85.97;125687.94;4976044;28;20125;-83
2022/10/03 06:14:27;;;;;;;23.35;9.65;;;9.10;99.90;;;-144.05;86.19;125687.94;4980239;28;20146;-86
2022/10/03 06:18:02;;;;;;;23.90;9.98;;;9.10;99.90;;;-144.05;86.21;125687.94;4997816;28;20425;-86
2022/10/03 06:21:31;;;;;;;24.75;11.00;;;9.10;99.90;;;-144.05;86.21;125687.94;5017778;28;20441;-84
2022/10/03 06:24:34;;;;;;;29.13;12.02;;;9.30;99.90;;;-144.05;86.64;125687.94;5034557;28;20025;-87
2022/10/03 06:28:11;;;;;;;23.60;9.55;;;9.50;99.90;;;-144.05;86.16;125687.94;5032765;28;20494;-87
2022/10/03 06:31:01;;;;;;;28.83;10.15;;;9.80;99.90;;;-144.05;85.84;125687.94;5032615;28;20096;-88
2022/10/03 06:34:07;;;;;;;28.67;12.32;;;10.10;99.90;;;-144.05;85.21;125687.94;5018119;28;20458;-85
2022/10/03 06:37:10;;;;;;;37.05;11.98;;;10.30;99.90;;;-144.05;85.24;125687.94;5032674;28;20045;-87
2022/10/03 06:40:09;;;;;;;22.50;10.65;;;10.60;99.90;;;-144.05;84.37;125687.94;5032893;28;20581;-84
2022/10/03 06:42:54;;;;;;;25.10;9.27;;;10.90;99.90;;;-144.05;84.35;125687.94;5032952;28;20033;-87
2022/10/03 06:45:59;;;;;;;25.58;9.18;;;11.20;99.90;;;-144.05;83.43;125687.94;5033117;28;20026;-87
2022/10/03 06:48:49;;;;;;;23.55;9.23;;;11.40;99.90;;;-144.05;82.37;125687.94;5018847;28;20026;-89
2022/10/03 06:52:24;;;;;;;28.38;8.85;;;11.60;99.90;;;-144.05;80.68;125687.94;5033523;28;20046;-87
2022/10/03 06:55:46;;;;;;;22.90;7.80;;;11.70;99.90;;;-144.05;79.09;125687.94;4976698;28;20050;-88
2022/10/03 06:59:16;;;;;;;17.23;7.38;;;11.90;99.90;;;-144.05;76.99;125687.94;4979128;28;20080;-88
2022/10/03 07:02:18;;;;;;;22.30;7.45;;;12.10;99.90;;;-144.05;76.27;125687.94;5035922;28;20037;-86
2022/10/03 07:05:41;;;;;;;21.23;8.73;;;12.40;99.90;;;-144.05;75.17;125687.94;5022400;28;20057;-87
2022/10/03 07:08:45;;;;;;;22.02;8.05;;;12.50;99.90;;;-144.05;73.86;125687.94;5011291;28;20045;-86
2022/10/03 07:12:12;;;;;;;16.02;5.78;;;12.60;99.90;;;-144.05;72.03;125687.94;5037930;28;20516;-88
2022/10/03 07:15:36;;;;;;;18.08;6.63;;;12.90;99.90;;;-144.05;72.74;125687.94;5031586;28;20040;-86
2022/10/03 07:18:33;;;;;;;19.00;7.28;;;13.10;99.90;;;-144.05;70.98;125687.94;5019274;28;20040;-88
2022/10/03 07:21:27;;;;;;;17.30;6.45;;;13.30;99.90;;;-144.05;69.92;125687.94;5018502;28;20040;-84
2022/10/03 07:24:08;;;;;;;22.00;7.72;;;13.50;99.90;;;-144.05;69.41;125687.94;5034712;28;20042;-85
2022/10/03 07:27:16;;;;;;;20.23;6.65;;;13.60;99.90;;;-144.05;68.86;125687.94;5022864;28;20018;-87
2022/10/03 07:30:14;;;;;;;;;;;13.80;99.90;;;-144.05;68.33;125687.94;5022822;28;20029;-85
2022/10/03 07:33:22;;;;;;;19.98;7.35;;;13.90;99.90;;;-144.05;66.95;125687.94;5021906;28;19910;-82
2022/10/03 07:40:13;;;;;;;23.88;7.80;;;14.10;99.90;;;-144.05;66.19;125687.94;4998084;28;20092;-89
2022/10/03 07:43:25;;;;;;;16.50;6.38;;;14.30;99.90;;;-144.05;65.68;125687.94;5037125;28;20026;-86
2022/10/03 07:46:37;;;;;;;19.40;6.53;;;14.40;99.90;;;-144.05;66.87;125687.94;5037121;28;20381;-89
2022/10/03 07:49:42;;;;;;;22.42;7.63;;;14.40;99.90;;;-144.05;66.13;125687.94;5036465;28;20065;-87
2022/10/03 07:52:53;;;;;;;20.00;6.93;;;14.40;99.90;;;-144.05;65.08;125687.94;5024841;28;20085;-85
2022/10/03 07:56:06;;;;;;;18.58;6.55;;;14.60;99.90;;;-144.05;65.25;125687.94;5025778;28;20036;-85
2022/10/03 07:59:28;;;;;;;14.38;6.22;;;14.80;99.90;;;-144.05;64.42;125687.94;5021390;28;20038;-86
2022/10/03 08:02:31;;;;;;;16.35;6.28;;;15.20;99.90;;;-144.05;63.77;125687.94;5003932;28;20241;-87
2022/10/03 08:06:00;;;;;;;17.13;6.40;;;15.60;99.90;;;-144.05;63.04;125687.94;5034379;28;20033;-85
2022/10/03 08:09:13;;;;;;;23.13;6.80;;;15.60;99.90;;;-144.05;62.21;125687.94;5009228;28;20080;-84
2022/10/03 08:12:15;;;;;;;19.77;6.60;;;15.70;99.90;;;-144.05;61.77;125687.94;5018948;28;20420;-85
2022/10/03 08:15:03;;;;;;;19.77;5.72;;;15.90;99.90;;;-144.05;60.82;125687.94;5034476;28;20421;-84
2022/10/03 08:18:43;;;;;;;17.27;6.18;;;16.00;99.90;;;-144.05;60.74;125687.94;5019383;28;20037;-86
2022/10/03 08:21:36;;;;;;;15.63;6.00;;;16.10;99.90;;;-144.05;58.54;125687.94;5018754;28;20028;-83
2022/10/03 08:24:39;;;;;;;14.95;5.63;;;16.00;99.90;;;-144.05;59.60;125687.94;5035314;28;20060;-87
2022/10/03 08:27:51;;;;;;;12.18;5.22;;;16.10;99.90;;;-144.05;59.04;125687.94;5019423;28;20393;-87
2022/10/03 08:31:03;;;;;;;14.75;6.00;;;16.30;99.90;;;-144.05;60.01;125687.94;5018368;28;20026;-84
2022/10/03 08:34:25;;;;;;;18.50;6.63;;;16.40;99.90;;;-144.05;59.72;125687.94;5007293;28;20042;-86
2022/10/03 08:37:41;;;;;;;17.15;4.93;;;16.50;99.90;;;-144.05;59.79;125687.94;5033375;28;20054;-86
2022/10/03 08:40:52;;;;;;;16.98;5.82;;;16.60;99.90;;;-144.05;57.65;125687.94;5018817;28;20065;-82
2022/10/03 08:43:49;;;;;;;11.60;5.35;;;16.70;99.90;;;-144.05;58.35;125687.94;5018725;28;20033;-86
2022/10/03 08:46:38;;;;;;;17.30;4.82;;;16.90;99.90;;;-144.05;57.30;125687.94;5018379;28;20037;-86
2022/10/03 08:49:38;;;;;;;16.25;4.75;;;17.10;99.90;;;-144.05;55.80;125687.94;5035794;28;20079;-86
2022/10/03 08:52:52;;;;;;;17.52;5.13;;;17.30;99.90;;;-144.05;57.57;125687.94;5035574;28;20057;-88
2022/10/03 08:56:16;;;;;;;15.38;5.13;;;17.00;99.90;;;-144.05;57.21;125687.94;5036623;28;20025;-84
2022/10/03 08:59:35;;;;;;;20.52;5.38;;;16.80;99.90;;;-144.05;56.72;125687.94;5019845;28;20072;-84
2022/10/03 09:02:59;;;;;;;15.25;4.85;;;16.50;99.90;;;-144.05;59.17;125687.94;5020729;28;20061;-84
2022/10/03 09:05:52;;;;;;;16.77;5.35;;;16.00;99.90;;;-144.05;60.41;125687.94;5018768;28;20116;-85
2022/10/03 09:08:42;;;;;;;19.73;5.32;;;15.70;99.90;;;-144.05;61.06;125687.94;5034523;28;20061;-83
2022/10/03 09:12:04;;;;;;;11.00;4.45;;;15.80;99.90;;;-144.05;61.48;125687.94;5020744;28;20029;-84
2022/10/03 09:15:35;;;;;;;13.07;4.32;;;16.00;99.90;;;-144.05;60.31;125687.94;5018782;28;20030;-86
2022/10/03 09:18:40;;;;;;;15.95;4.85;;;16.20;99.90;;;-144.05;60.67;125687.94;5034658;28;20421;-86
2022/10/03 09:22:18;;;;;;;17.17;4.35;;;16.00;99.90;;;-144.05;60.86;125687.94;5019901;28;20026;-87
2022/10/03 09:25:21;;;;;;;17.98;4.65;;;15.90;99.90;;;-144.05;60.57;125687.94;4978034;28;20057;-86
2022/10/03 09:28:38;;;;;;;11.63;3.72;;;15.90;99.90;;;-144.05;60.46;125687.94;5034471;28;20113;-85
2022/10/03 09:31:25;;;;;;;11.50;3.60;;;15.80;99.90;;;-144.05;60.84;125687.94;5020751;28;20033;-84
2022/10/03 09:34:43;;;;;;;13.18;3.55;;;15.90;99.90;;;-144.05;60.52;125687.94;5036098;28;20034;-85
2022/10/03 09:38:11;;;;;;;12.15;3.45;;;16.10;99.90;;;-144.05;59.93;125687.94;5020222;28;20426;-83
2022/10/03 09:41:24;;;;;;;14.57;4.68;;;16.30;99.90;;;-144.05;57.36;125687.94;5034606;28;20057;-85
2022/10/03 09:44:27;;;;;;;14.23;3.90;;;16.80;99.90;;;-144.05;56.42;125687.94;5034437;28;20033;-86
2022/10/03 09:47:41;;;;;;;11.25;2.47;;;16.90;99.90;;;-144.05;56.74;125687.94;5019387;28;20076;-84
2022/10/03 09:51:29;;;;;;;12.23;2.85;;;17.20;99.90;;;-144.05;54.86;125687.94;5034608;28;20034;-84
2022/10/03 09:55:07;;;;;;;16.20;3.35;;;17.30;99.90;;;-144.05;54.47;125687.94;5001279;28;20142;-85
2022/10/03 09:58:24;;;;;;;15.02;2.67;;;17.20;99.90;;;-144.05;53.59;125687.94;5036171;28;20096;-83
2022/10/03 10:01:50;;;;;;;9.90;2.13;;;17.20;99.90;;;-144.05;53.65;125687.94;5019851;28;20060;-85
2022/10/03 10:04:48;;;;;;;11.50;2.78;;;17.40;99.90;;;-144.05;53.12;125687.94;5021988;28;20029;-85
2022/10/03 10:08:08;;;;;;;7.10;2.53;;;17.30;99.90;;;-144.05;55.22;125687.94;4999693;28;20092;-84
2022/10/03 10:11:13;;;;;;;10.00;3.10;;;17.10;99.90;;;-144.05;54.22;125687.94;5034987;28;20036;-86
2022/10/03 10:14:35;;;;;;;9.02;1.90;;;17.60;99.90;;;-144.05;51.60;125687.94;5034039;28;20389;-87
2022/10/03 10:17:56;;;;;;;9.20;2.33;;;18.00;99.90;;;-144.05;52.08;125687.94;5020931;28;20036;-85
2022/10/03 10:21:46;;;;;;;10.32;2.15;;;17.70;99.90;;;-144.05;53.35;125687.94;5036563;28;20096;-86
2022/10/03 10:24:58;;;;;;;9.32;2.45;;;17.20;99.90;;;-144.05;54.23;125687.94;5022367;28;20109;-84
2022/10/03 10:28:46;;;;;;;9.95;3.83;;;17.10;99.90;;;-144.05;52.67;125687.94;5017950;28;20022;-86
2022/10/03 10:32:06;;;;;;;12.07;2.28;;;17.60;99.90;;;-144.05;50.37;125687.94;5015564;28;20037;-83
2022/10/03 10:35:36;;;;;;;9.38;1.90;;;17.90;99.90;;;-144.05;50.10;125687.94;5014575;28;20160;-83
2022/10/03 10:38:42;;;;;;;14.73;2.85;;;17.90;99.90;;;-144.05;51.74;125687.94;5034313;28;20030;-86
2022/10/03 10:42:02;;;;;;;10.00;2.38;;;17.50;99.90;;;-144.05;51.40;125687.94;5015632;28;20133;-86
2022/10/03 10:45:24;;;;;;;6.95;1.50;;;17.40;99.90;;;-144.05;51.66;125687.94;5015484;28;20210;-82
2022/10/03 10:49:01;;;;;;;7.90;1.73;;;17.20;99.90;;;-144.05;52.38;125687.94;5015301;28;20026;-85
2022/10/03 10:51:55;;;;;;;11.07;1.83;;;16.90;99.90;;;-144.05;53.74;125687.94;5034133;28;20022;-84
2022/10/03 10:55:40;;;;;;;10.02;1.77;;;16.70;99.90;;;-144.05;53.69;125687.94;5032976;28;20446;-85
2022/10/03 10:59:15;;;;;;;10.70;2.38;;;17.00;99.90;;;-144.05;50.74;125687.94;5032876;28;20381;-85
2022/10/03 11:02:42;;;;;;;7.68;1.85;;;17.50;99.90;;;-144.05;49.28;125687.94;5021395;28;20026;-84
2022/10/03 11:05:45;;;;;;;4.93;1.60;;;18.20;99.90;;;-144.05;48.25;125687.94;5020697;28;20108;-85
2022/10/03 11:08:50;;;;;;;7.13;1.60;;;18.30;99.90;;;-144.05;47.90;125687.94;5020147;28;20030;-83
2022/10/03 11:11:58;;;;;;;9.88;2.00;;;18.60;99.90;;;-144.05;48.18;125687.94;5022093;28;20049;-86
2022/10/03 11:15:31;;;;;;;9.70;1.67;;;18.50;99.90;;;-144.05;47.95;125687.94;5037140;28;20033;-85
2022/10/03 11:18:34;;;;;;;7.10;1.88;;;18.20;99.90;;;-144.05;49.79;125687.94;5020919;28;20092;-83
2022/10/03 11:21:33;;;;;;;6.15;1.80;;;17.70;99.90;;;-144.05;49.88;125687.94;5020173;28;20030;-87
2022/10/03 11:25:18;;;;;;;8.75;1.60;;;17.40;99.90;;;-144.05;49.29;125687.94;5020360;28;20033;-85
2022/10/03 11:28:33;;;;;;;10.95;1.60;;;17.50;99.90;;;-144.05;49.45;125687.94;5036167;28;20061;-83
2022/10/03 11:31:57;;;;;;;9.75;1.90;;;17.40;99.90;;;-144.05;49.69;125687.94;5020632;28;20037;-85
2022/10/03 11:36:03;;;;;;;7.38;1.50;;;17.40;99.90;;;-144.05;48.27;125687.94;5021520;28;20022;-84
2022/10/03 11:38:45;;;;;;;8.50;2.10;;;17.60;99.90;;;-144.05;48.34;125687.94;4973423;28;20046;-82
2022/10/03 11:41:49;;;;;;;9.98;2.00;;;17.90;99.90;;;-144.05;50.17;125687.94;5035587;28;20104;-85
2022/10/03 11:44:28;;;;;;;4.88;1.15;;;18.10;99.90;;;-144.05;47.69;125687.94;5035624;28;20036;-85
2022/10/03 11:47:38;;;;;;;6.35;1.98;;;18.30;99.90;;;-144.05;47.21;125687.94;5020300;28;20030;-82
2022/10/03 11:50:45;;;;;;;8.88;1.88;;;18.40;99.90;;;-144.05;46.35;125687.94;5021111;28;20045;-83
2022/10/03 11:53:49;;;;;;;5.22;1.33;;;18.80;99.90;;;-144.05;46.57;125687.94;5021910;28;20017;-84
2022/10/03 11:56:43;;;;;;;8.23;1.70;;;19.20;99.90;;;-144.05;45.20;125687.94;5036549;28;20098;-85
2022/10/03 11:59:59;;;;;;;10.88;1.50;;;19.40;99.90;;;-144.05;44.80;125687.94;5020333;28;20026;-84
2022/10/03 12:03:09;;;;;;;5.28;1.40;;;19.40;99.90;;;-144.05;44.27;125687.94;5035666;28;20382;-84
2022/10/03 12:08:53;;;;;;;6.60;1.25;;;19.10;99.90;;;-144.05;44.05;125687.94;5036232;28;20485;-83
2022/10/03 12:09:18;;;;;;;6.93;1.40;;;19.10;99.90;;;-144.05;44.64;125687.94;5020184;28;20065;-84
2022/10/03 12:12:26;;;;;;;3.45;1.13;;;18.90;99.90;;;-144.05;44.54;125687.94;5040036;28;20017;-80
2022/10/03 12:15:11;;;;;;;2.35;0.90;;;19.00;99.90;;;-144.05;44.26;125687.94;5031270;28;20108;-86
2022/10/03 12:17:59;;;;;;;6.10;1.30;;;19.00;99.90;;;-144.05;44.19;125687.94;5020483;28;20512;-83
2022/10/03 12:21:11;;;;;;;6.32;1.58;;;18.90;99.90;;;-144.05;44.25;125687.94;5019501;28;20398;-87
2022/10/03 12:24:40;;;;;;;6.82;1.55;;;18.70;99.90;;;-144.05;44.31;125687.94;5036264;28;20129;-86
2022/10/03 12:27:47;;;;;;;2.58;1.10;;;18.50;99.90;;;-144.05;44.46;125687.94;4980092;28;20054;-84
2022/10/03 12:30:20;;;;;;;4.35;1.13;;;18.30;99.90;;;-144.05;44.49;125687.94;4963133;28;20045;-84
2022/10/03 12:33:26;;;;;;;6.95;1.50;;;18.20;99.90;;;-144.05;44.97;125687.94;5034103;28;20030;-85
2022/10/03 12:36:15;;;;;;;7.32;1.38;;;17.90;99.90;;;-144.05;46.69;125687.94;5037701;28;20036;-85
2022/10/03 12:38:45;;;;;;;3.97;1.05;;;17.70;99.90;;;-144.05;46.19;125687.94;5037711;28;20033;-87
2022/10/03 12:42:12;;;;;;;7.40;1.48;;;17.60;99.90;;;-144.05;46.54;125687.94;5021137;28;20026;-87
2022/10/03 12:45:28;;;;;;;4.45;1.17;;;17.70;99.90;;;-144.05;45.97;125687.94;5037588;28;20457;-85
2022/10/03 12:48:46;;;;;;;5.13;1.27;;;18.10;99.90;;;-144.05;45.02;125687.94;5017481;28;20033;-84
2022/10/03 12:51:55;;;;;;;5.20;1.42;;;18.50;99.90;;;-144.05;43.82;125687.94;5018801;28;20088;-84